sensor_id;sensor_type;location;lat;lon;timestamp;pressure;altitude;pressure_sealevel;temperature;humidity
37716;BME280;23562;50.540;12.504;2022-07-21T00:01:19;94773.94;;;25.85;54.94
37716;BME280;23562;50.540;12.504;2022-07-21T00:03:45;94774.50;;;25.75;57.65
37716;BME280;23562;50.540;12.504;2022-07-21T00:06:10;94784.56;;;25.68;59.93
37716;BME280;23562;50.540;12.504;2022-07-21T00:08:35;94774.56;;;25.39;62.28
37716;BME280;23562;50.540;12.504;2022-07-21T00:11:01;94790.31;;;25.42;62.46
37716;BME280;23562;50.540;12.504;2022-07-21T00:13:26;94784.16;;;25.35;62.55
37716;BME280;23562;50.540;12.504;2022-07-21T00:15:51;94800.38;;;25.35;63.91
37716;BME280;23562;50.540;12.504;2022-07-21T00:18:18;94798.75;;;25.16;65.49
37716;BME280;23562;50.540;12.504;2022-07-21T00:20:44;94793.94;;;25.18;65.86
37716;BME280;23562;50.540;12.504;2022-07-21T00:23:09;94795.56;;;25.01;66.71
37716;BME280;23562;50.540;12.504;2022-07-21T00:25:34;94799.19;;;24.95;67.00
37716;BME280;23562;50.540;12.504;2022-07-21T00:28:01;94813.75;;;24.94;67.22
37716;BME280;23562;50.540;12.504;2022-07-21T00:30:27;94808.16;;;24.71;68.82
37716;BME280;23562;50.540;12.504;2022-07-21T00:32:52;94815.53;;;24.82;68.81
37716;BME280;23562;50.540;12.504;2022-07-21T00:35:17;94822.41;;;24.78;68.30
37716;BME280;23562;50.540;12.504;2022-07-21T00:37:42;94827.25;;;24.69;69.38
37716;BME280;23562;50.540;12.504;2022-07-21T00:40:10;94823.91;;;24.74;70.13
37716;BME280;23562;50.540;12.504;2022-07-21T00:42:36;94836.91;;;24.59;71.11
37716;BME280;23562;50.540;12.504;2022-07-21T00:45:04;94822.91;;;24.44;71.20
37716;BME280;23562;50.540;12.504;2022-07-21T00:47:30;94824.69;;;24.32;73.00
37716;BME280;23562;50.540;12.504;2022-07-21T00:49:57;94839.66;;;24.28;73.72
37716;BME280;23562;50.540;12.504;2022-07-21T00:52:23;94833.25;;;24.22;73.96
37716;BME280;23562;50.540;12.504;2022-07-21T00:54:48;94832.66;;;24.20;74.25
37716;BME280;23562;50.540;12.504;2022-07-21T00:57:14;94817.03;;;23.98;76.39
37716;BME280;23562;50.540;12.504;2022-07-21T00:59:40;94836.34;;;24.26;74.26
37716;BME280;23562;50.540;12.504;2022-07-21T01:02:06;94826.16;;;23.97;76.61
37716;BME280;23562;50.540;12.504;2022-07-21T01:04:31;94836.31;;;24.01;76.48
37716;BME280;23562;50.540;12.504;2022-07-21T01:06:57;94831.81;;;23.89;76.06
37716;BME280;23562;50.540;12.504;2022-07-21T01:09:23;94835.25;;;24.09;75.94
37716;BME280;23562;50.540;12.504;2022-07-21T01:11:48;94829.13;;;23.89;77.03
37716;BME280;23562;50.540;12.504;2022-07-21T01:14:14;94835.13;;;23.91;76.75
37716;BME280;23562;50.540;12.504;2022-07-21T01:16:42;94843.22;;;23.91;77.61
37716;BME280;23562;50.540;12.504;2022-07-21T01:19:11;94829.53;;;23.85;75.44
37716;BME280;23562;50.540;12.504;2022-07-21T01:24:05;94857.09;;;23.88;77.54
37716;BME280;23562;50.540;12.504;2022-07-21T01:26:31;94849.53;;;23.71;78.95
37716;BME280;23562;50.540;12.504;2022-07-21T01:28:57;94854.63;;;23.86;77.59
37716;BME280;23562;50.540;12.504;2022-07-21T01:31:23;94843.72;;;23.74;77.93
37716;BME280;23562;50.540;12.504;2022-07-21T01:33:49;94852.41;;;23.76;79.06
37716;BME280;23562;50.540;12.504;2022-07-21T01:36:15;94826.72;;;23.67;77.91
37716;BME280;23562;50.540;12.504;2022-07-21T01:38:40;94837.50;;;23.67;78.69
37716;BME280;23562;50.540;12.504;2022-07-21T01:41:24;94833.41;;;23.58;79.68
37716;BME280;23562;50.540;12.504;2022-07-21T01:43:56;94834.13;;;23.47;82.27
37716;BME280;23562;50.540;12.504;2022-07-21T01:46:22;94822.78;;;23.32;83.75
37716;BME280;23562;50.540;12.504;2022-07-21T01:48:47;94828.16;;;23.32;83.16
37716;BME280;23562;50.540;12.504;2022-07-21T01:51:12;94831.47;;;23.28;84.75
37716;BME280;23562;50.540;12.504;2022-07-21T01:53:38;94840.22;;;23.17;84.62
37716;BME280;23562;50.540;12.504;2022-07-21T01:56:04;94831.94;;;23.12;84.83
37716;BME280;23562;50.540;12.504;2022-07-21T01:58:30;94841.91;;;23.11;86.20
37716;BME280;23562;50.540;12.504;2022-07-21T02:00:55;94830.50;;;23.09;86.09
37716;BME280;23562;50.540;12.504;2022-07-21T02:03:21;94840.66;;;23.07;86.90
37716;BME280;23562;50.540;12.504;2022-07-21T02:05:46;94836.53;;;22.98;87.83
37716;BME280;23562;50.540;12.504;2022-07-21T02:08:11;94837.38;;;22.92;89.31
37716;BME280;23562;50.540;12.504;2022-07-21T02:10:36;94845.25;;;22.87;89.22
37716;BME280;23562;50.540;12.504;2022-07-21T02:13:02;94857.69;;;22.88;88.61
37716;BME280;23562;50.540;12.504;2022-07-21T02:15:29;94854.56;;;22.91;89.14
37716;BME280;23562;50.540;12.504;2022-07-21T02:17:54;94863.47;;;22.85;88.92
37716;BME280;23562;50.540;12.504;2022-07-21T02:20:19;94867.63;;;22.88;89.00
37716;BME280;23562;50.540;12.504;2022-07-21T02:22:45;94853.56;;;22.79;88.71
37716;BME280;23562;50.540;12.504;2022-07-21T02:25:11;94862.66;;;22.78;90.11
37716;BME280;23562;50.540;12.504;2022-07-21T02:27:36;94875.31;;;22.71;91.07
37716;BME280;23562;50.540;12.504;2022-07-21T02:30:03;94857.28;;;22.78;89.87
37716;BME280;23562;50.540;12.504;2022-07-21T02:32:28;94856.03;;;22.74;90.32
37716;BME280;23562;50.540;12.504;2022-07-21T02:34:53;94853.75;;;22.77;89.07
37716;BME280;23562;50.540;12.504;2022-07-21T02:37:19;94851.09;;;22.71;90.70
37716;BME280;23562;50.540;12.504;2022-07-21T02:39:44;94860.00;;;22.52;93.08
37716;BME280;23562;50.540;12.504;2022-07-21T02:42:10;94858.09;;;22.52;91.93
37716;BME280;23562;50.540;12.504;2022-07-21T02:44:35;94866.81;;;22.48;93.27
37716;BME280;23562;50.540;12.504;2022-07-21T02:47:01;94861.03;;;22.38;93.89
37716;BME280;23562;50.540;12.504;2022-07-21T02:49:26;94877.97;;;22.38;95.39
37716;BME280;23562;50.540;12.504;2022-07-21T02:51:52;94870.09;;;22.24;96.91
37716;BME280;23562;50.540;12.504;2022-07-21T02:54:17;94867.84;;;22.21;96.89
37716;BME280;23562;50.540;12.504;2022-07-21T02:56:42;94888.53;;;22.33;95.89
37716;BME280;23562;50.540;12.504;2022-07-21T02:59:07;94885.63;;;22.35;95.39
37716;BME280;23562;50.540;12.504;2022-07-21T03:01:33;94899.50;;;22.32;95.81
37716;BME280;23562;50.540;12.504;2022-07-21T03:03:58;94890.00;;;22.36;93.69
37716;BME280;23562;50.540;12.504;2022-07-21T03:06:23;94875.50;;;22.50;90.34
37716;BME280;23562;50.540;12.504;2022-07-21T03:08:48;94863.50;;;22.46;90.58
37716;BME280;23562;50.540;12.504;2022-07-21T03:11:14;94867.44;;;22.50;89.46
37716;BME280;23562;50.540;12.504;2022-07-21T03:13:39;94870.34;;;22.55;87.65
37716;BME280;23562;50.540;12.504;2022-07-21T03:16:04;94873.44;;;22.65;87.21
37716;BME280;23562;50.540;12.504;2022-07-21T03:18:30;94863.50;;;22.65;86.43
37716;BME280;23562;50.540;12.504;2022-07-21T03:20:56;94849.47;;;22.57;86.18
37716;BME280;23562;50.540;12.504;2022-07-21T03:23:22;94849.22;;;22.52;87.20
37716;BME280;23562;50.540;12.504;2022-07-21T03:25:47;94851.09;;;22.58;86.68
37716;BME280;23562;50.540;12.504;2022-07-21T03:28:12;94848.19;;;22.66;85.91
37716;BME280;23562;50.540;12.504;2022-07-21T03:30:38;94863.31;;;22.67;84.71
37716;BME280;23562;50.540;12.504;2022-07-21T03:33:03;94857.91;;;22.67;85.75
37716;BME280;23562;50.540;12.504;2022-07-21T03:35:29;94839.06;;;22.67;84.42
37716;BME280;23562;50.540;12.504;2022-07-21T03:37:57;94841.16;;;22.58;85.80
37716;BME280;23562;50.540;12.504;2022-07-21T03:40:24;94830.00;;;22.55;85.75
37716;BME280;23562;50.540;12.504;2022-07-21T03:43:00;94843.25;;;22.63;84.34
37716;BME280;23562;50.540;12.504;2022-07-21T03:45:27;94830.00;;;22.68;83.93
37716;BME280;23562;50.540;12.504;2022-07-21T03:47:55;94844.28;;;22.62;83.68
37716;BME280;23562;50.540;12.504;2022-07-21T03:50:21;94838.47;;;22.65;83.55
37716;BME280;23562;50.540;12.504;2022-07-21T03:52:46;94860.59;;;22.67;83.37
37716;BME280;23562;50.540;12.504;2022-07-21T03:55:11;94854.84;;;22.70;83.75
37716;BME280;23562;50.540;12.504;2022-07-21T03:57:50;94852.94;;;22.77;83.59
37716;BME280;23562;50.540;12.504;2022-07-21T04:00:18;94864.34;;;22.66;85.92
37716;BME280;23562;50.540;12.504;2022-07-21T04:02:45;94866.41;;;22.64;85.84
37716;BME280;23562;50.540;12.504;2022-07-21T04:05:12;94860.22;;;22.57;87.23
37716;BME280;23562;50.540;12.504;2022-07-21T04:07:42;94859.16;;;22.58;86.50
37716;BME280;23562;50.540;12.504;2022-07-21T04:10:08;94855.66;;;22.77;84.42
37716;BME280;23562;50.540;12.504;2022-07-21T04:12:34;94861.00;;;22.83;84.07
37716;BME280;23562;50.540;12.504;2022-07-21T04:14:59;94861.44;;;22.80;83.44
37716;BME280;23562;50.540;12.504;2022-07-21T04:17:24;94866.38;;;22.83;84.30
37716;BME280;23562;50.540;12.504;2022-07-21T04:19:49;94829.13;;;22.74;84.48
37716;BME280;23562;50.540;12.504;2022-07-21T04:22:15;94817.56;;;22.73;84.05
37716;BME280;23562;50.540;12.504;2022-07-21T04:24:41;94822.72;;;22.75;83.70
37716;BME280;23562;50.540;12.504;2022-07-21T04:27:06;94821.06;;;22.74;84.78
37716;BME280;23562;50.540;12.504;2022-07-21T04:29:31;94818.97;;;22.76;83.21
37716;BME280;23562;50.540;12.504;2022-07-21T04:31:56;94818.78;;;22.77;83.88
37716;BME280;23562;50.540;12.504;2022-07-21T04:34:22;94810.50;;;22.72;85.48
37716;BME280;23562;50.540;12.504;2022-07-21T04:36:47;94822.09;;;22.73;88.03
37716;BME280;23562;50.540;12.504;2022-07-21T04:39:12;94822.91;;;22.80;88.61
37716;BME280;23562;50.540;12.504;2022-07-21T04:41:37;94828.31;;;22.80;87.66
37716;BME280;23562;50.540;12.504;2022-07-21T04:44:03;94839.31;;;22.72;87.19
37716;BME280;23562;50.540;12.504;2022-07-21T04:46:28;94851.47;;;22.81;86.14
37716;BME280;23562;50.540;12.504;2022-07-21T04:48:53;94857.28;;;22.78;84.80
37716;BME280;23562;50.540;12.504;2022-07-21T04:51:18;94863.88;;;22.89;85.23
37716;BME280;23562;50.540;12.504;2022-07-21T04:53:44;94863.91;;;22.82;86.76
37716;BME280;23562;50.540;12.504;2022-07-21T04:56:09;94868.25;;;22.83;87.01
37716;BME280;23562;50.540;12.504;2022-07-21T04:58:34;94881.31;;;22.73;87.99
37716;BME280;23562;50.540;12.504;2022-07-21T05:00:59;94871.38;;;22.67;88.05
37716;BME280;23562;50.540;12.504;2022-07-21T05:03:25;94885.06;;;22.72;87.66
37716;BME280;23562;50.540;12.504;2022-07-21T05:05:50;94896.84;;;22.71;87.18
37716;BME280;23562;50.540;12.504;2022-07-21T05:08:15;94878.00;;;22.71;85.78
37716;BME280;23562;50.540;12.504;2022-07-21T05:10:41;94885.88;;;22.66;85.25
37716;BME280;23562;50.540;12.504;2022-07-21T05:13:06;94888.34;;;22.67;86.86
37716;BME280;23562;50.540;12.504;2022-07-21T05:15:31;94896.84;;;22.64;85.67
37716;BME280;23562;50.540;12.504;2022-07-21T05:17:56;94899.56;;;22.64;87.67
37716;BME280;23562;50.540;12.504;2022-07-21T05:20:22;94897.06;;;22.63;88.57
37716;BME280;23562;50.540;12.504;2022-07-21T05:22:47;94908.22;;;22.73;87.10
37716;BME280;23562;50.540;12.504;2022-07-21T05:25:12;94898.28;;;22.80;86.83
37716;BME280;23562;50.540;12.504;2022-07-21T05:27:37;94915.25;;;23.00;85.37
37716;BME280;23562;50.540;12.504;2022-07-21T05:30:04;94929.72;;;22.99;85.01
37716;BME280;23562;50.540;12.504;2022-07-21T05:32:29;94928.28;;;23.03;84.13
37716;BME280;23562;50.540;12.504;2022-07-21T05:34:54;94921.81;;;23.17;82.63
37716;BME280;23562;50.540;12.504;2022-07-21T05:37:19;94935.31;;;23.30;81.48
37716;BME280;23562;50.540;12.504;2022-07-21T05:39:45;94920.56;;;23.26;82.09
37716;BME280;23562;50.540;12.504;2022-07-21T05:42:10;94926.13;;;23.44;78.69
37716;BME280;23562;50.540;12.504;2022-07-21T05:44:35;94935.25;;;23.50;77.77
37716;BME280;23562;50.540;12.504;2022-07-21T05:47:00;94941.22;;;23.58;79.85
37716;BME280;23562;50.540;12.504;2022-07-21T05:49:26;94932.47;;;23.69;78.09
37716;BME280;23562;50.540;12.504;2022-07-21T05:51:51;94943.63;;;23.86;77.14
37716;BME280;23562;50.540;12.504;2022-07-21T05:54:16;94941.94;;;23.92;76.36
37716;BME280;23562;50.540;12.504;2022-07-21T05:56:42;94933.66;;;23.87;75.72
37716;BME280;23562;50.540;12.504;2022-07-21T05:59:07;94936.53;;;23.92;76.51
37716;BME280;23562;50.540;12.504;2022-07-21T06:01:32;94926.00;;;23.83;75.98
37716;BME280;23562;50.540;12.504;2022-07-21T06:03:58;94939.06;;;23.87;76.74
37716;BME280;23562;50.540;12.504;2022-07-21T06:06:23;94949.22;;;23.84;76.28
37716;BME280;23562;50.540;12.504;2022-07-21T06:08:49;94958.59;;;23.75;76.03
37716;BME280;23562;50.540;12.504;2022-07-21T06:11:16;94945.28;;;23.80;74.63
37716;BME280;23562;50.540;12.504;2022-07-21T06:13:42;94949.44;;;23.83;74.65
37716;BME280;23562;50.540;12.504;2022-07-21T06:16:09;94960.56;;;24.00;72.70
37716;BME280;23562;50.540;12.504;2022-07-21T06:18:35;94960.16;;;24.03;73.00
37716;BME280;23562;50.540;12.504;2022-07-21T06:21:00;94968.06;;;23.98;70.37
37716;BME280;23562;50.540;12.504;2022-07-21T06:23:26;94969.69;;;23.99;69.20
37716;BME280;23562;50.540;12.504;2022-07-21T06:25:51;94973.03;;;24.01;69.22
37716;BME280;23562;50.540;12.504;2022-07-21T06:28:17;94968.66;;;24.06;68.88
37716;BME280;23562;50.540;12.504;2022-07-21T06:30:42;94982.56;;;23.97;69.59
37716;BME280;23562;50.540;12.504;2022-07-21T06:33:08;94963.59;;;23.72;72.12
37716;BME280;23562;50.540;12.504;2022-07-21T06:35:33;94982.38;;;23.92;73.13
37716;BME280;23562;50.540;12.504;2022-07-21T06:37:59;94983.00;;;23.94;72.64
37716;BME280;23562;50.540;12.504;2022-07-21T06:40:24;94990.88;;;23.95;73.46
37716;BME280;23562;50.540;12.504;2022-07-21T06:42:49;94989.31;;;23.74;76.08
37716;BME280;23562;50.540;12.504;2022-07-21T06:45:15;94992.19;;;23.79;76.38
37716;BME280;23562;50.540;12.504;2022-07-21T06:47:40;94988.03;;;23.83;75.43
37716;BME280;23562;50.540;12.504;2022-07-21T06:50:07;94995.84;;;24.05;73.70
37716;BME280;23562;50.540;12.504;2022-07-21T06:52:33;94984.03;;;23.93;74.55
37716;BME280;23562;50.540;12.504;2022-07-21T06:54:59;94990.66;;;23.97;74.05
37716;BME280;23562;50.540;12.504;2022-07-21T06:57:25;94990.63;;;24.10;73.32
37716;BME280;23562;50.540;12.504;2022-07-21T06:59:50;94998.28;;;24.13;72.56
37716;BME280;23562;50.540;12.504;2022-07-21T07:02:15;95004.91;;;24.17;73.71
37716;BME280;23562;50.540;12.504;2022-07-21T07:04:41;94992.47;;;24.16;74.42
37716;BME280;23562;50.540;12.504;2022-07-21T07:07:06;94984.13;;;24.24;73.16
37716;BME280;23562;50.540;12.504;2022-07-21T07:09:31;94982.72;;;24.15;70.80
37716;BME280;23562;50.540;12.504;2022-07-21T07:11:57;94980.34;;;24.31;71.61
37716;BME280;23562;50.540;12.504;2022-07-21T07:14:29;94986.13;;;24.35;72.67
37716;BME280;23562;50.540;12.504;2022-07-21T07:16:54;94990.69;;;24.34;71.55
37716;BME280;23562;50.540;12.504;2022-07-21T07:19:20;94992.94;;;24.44;73.08
37716;BME280;23562;50.540;12.504;2022-07-21T07:21:45;94995.63;;;24.44;74.53
37716;BME280;23562;50.540;12.504;2022-07-21T07:24:11;94997.78;;;24.29;74.56
37716;BME280;23562;50.540;12.504;2022-07-21T07:26:36;95008.78;;;24.34;72.84
37716;BME280;23562;50.540;12.504;2022-07-21T07:29:01;95006.47;;;24.37;72.08
37716;BME280;23562;50.540;12.504;2022-07-21T07:31:27;95003.13;;;24.42;73.82
37716;BME280;23562;50.540;12.504;2022-07-21T07:33:52;95027.16;;;24.50;74.35
37716;BME280;23562;50.540;12.504;2022-07-21T07:36:17;95022.13;;;24.60;72.11
37716;BME280;23562;50.540;12.504;2022-07-21T07:38:43;95022.28;;;24.34;73.49
37716;BME280;23562;50.540;12.504;2022-07-21T07:41:08;95007.94;;;24.33;73.36
37716;BME280;23562;50.540;12.504;2022-07-21T07:43:33;95010.31;;;24.17;73.90
37716;BME280;23562;50.540;12.504;2022-07-21T07:45:59;95013.25;;;24.09;73.88
37716;BME280;23562;50.540;12.504;2022-07-21T07:48:26;95013.44;;;24.14;72.88
37716;BME280;23562;50.540;12.504;2022-07-21T07:50:51;95012.47;;;23.89;76.37
37716;BME280;23562;50.540;12.504;2022-07-21T07:53:16;95019.53;;;23.76;78.62
37716;BME280;23562;50.540;12.504;2022-07-21T07:55:42;95008.75;;;23.76;80.90
37716;BME280;23562;50.540;12.504;2022-07-21T07:58:07;95002.56;;;23.69;80.75
37716;BME280;23562;50.540;12.504;2022-07-21T08:00:32;95000.91;;;23.68;80.93
37716;BME280;23562;50.540;12.504;2022-07-21T08:02:57;95021.66;;;23.74;81.98
37716;BME280;23562;50.540;12.504;2022-07-21T08:05:23;95033.25;;;23.81;82.22
37716;BME280;23562;50.540;12.504;2022-07-21T08:07:48;95028.50;;;23.70;85.41
37716;BME280;23562;50.540;12.504;2022-07-21T08:10:13;95027.03;;;23.74;87.08
37716;BME280;23562;50.540;12.504;2022-07-21T08:12:39;95045.69;;;23.69;84.66
37716;BME280;23562;50.540;12.504;2022-07-21T08:15:05;95054.84;;;23.55;85.12
37716;BME280;23562;50.540;12.504;2022-07-21T08:17:31;95066.88;;;23.33;88.09
37716;BME280;23562;50.540;12.504;2022-07-21T08:19:56;95068.56;;;23.47;88.29
37716;BME280;23562;50.540;12.504;2022-07-21T08:22:22;95064.00;;;23.41;92.06
37716;BME280;23562;50.540;12.504;2022-07-21T08:24:47;95065.00;;;23.27;94.11
37716;BME280;23562;50.540;12.504;2022-07-21T08:27:12;95058.16;;;23.05;97.83
37716;BME280;23562;50.540;12.504;2022-07-21T08:29:38;95071.81;;;22.84;100.00
37716;BME280;23562;50.540;12.504;2022-07-21T08:32:03;95068.19;;;22.51;100.00
37716;BME280;23562;50.540;12.504;2022-07-21T08:34:29;95071.50;;;22.53;100.00
37716;BME280;23562;50.540;12.504;2022-07-21T08:36:54;95074.56;;;22.43;100.00
37716;BME280;23562;50.540;12.504;2022-07-21T08:39:20;95086.75;;;22.33;100.00
37716;BME280;23562;50.540;12.504;2022-07-21T08:41:45;95092.31;;;22.25;100.00
37716;BME280;23562;50.540;12.504;2022-07-21T08:44:11;95104.44;;;22.08;100.00
37716;BME280;23562;50.540;12.504;2022-07-21T08:46:39;95106.25;;;22.01;100.00
37716;BME280;23562;50.540;12.504;2022-07-21T08:49:05;95114.94;;;21.96;100.00
37716;BME280;23562;50.540;12.504;2022-07-21T08:51:33;95098.56;;;21.63;100.00
37716;BME280;23562;50.540;12.504;2022-07-21T08:53:59;95050.88;;;21.44;100.00
37716;BME280;23562;50.540;12.504;2022-07-21T08:56:24;95064.88;;;21.33;100.00
37716;BME280;23562;50.540;12.504;2022-07-21T08:58:50;95051.06;;;21.36;100.00
37716;BME280;23562;50.540;12.504;2022-07-21T09:01:15;95061.25;;;21.47;100.00
37716;BME280;23562;50.540;12.504;2022-07-21T09:03:40;95066.22;;;21.50;100.00
37716;BME280;23562;50.540;12.504;2022-07-21T09:06:09;95066.66;;;21.54;100.00
37716;BME280;23562;50.540;12.504;2022-07-21T09:08:39;95069.47;;;21.39;100.00
37716;BME280;23562;50.540;12.504;2022-07-21T09:13:36;95069.09;;;21.42;100.00
37716;BME280;23562;50.540;12.504;2022-07-21T09:16:01;95073.66;;;21.48;100.00
37716;BME280;23562;50.540;12.504;2022-07-21T09:18:27;95089.47;;;21.64;100.00
37716;BME280;23562;50.540;12.504;2022-07-21T09:20:53;95084.91;;;21.58;100.00
37716;BME280;23562;50.540;12.504;2022-07-21T09:23:21;95078.38;;;21.46;100.00
37716;BME280;23562;50.540;12.504;2022-07-21T09:25:49;95074.19;;;21.65;100.00
37716;BME280;23562;50.540;12.504;2022-07-21T09:28:26;95060.94;;;21.63;100.00
37716;BME280;23562;50.540;12.504;2022-07-21T09:33:29;95062.31;;;21.80;100.00
37716;BME280;23562;50.540;12.504;2022-07-21T09:36:00;95047.03;;;21.88;100.00
37716;BME280;23562;50.540;12.504;2022-07-21T09:38:27;95041.16;;;21.71;100.00
37716;BME280;23562;50.540;12.504;2022-07-21T09:40:53;95038.63;;;21.97;100.00
37716;BME280;23562;50.540;12.504;2022-07-21T09:43:33;95028.50;;;22.06;100.00
37716;BME280;23562;50.540;12.504;2022-07-21T09:46:02;95050.06;;;22.19;100.00
37716;BME280;23562;50.540;12.504;2022-07-21T09:48:35;95044.25;;;22.09;100.00
37716;BME280;23562;50.540;12.504;2022-07-21T09:51:19;95037.56;;;21.92;100.00
37716;BME280;23562;50.540;12.504;2022-07-21T09:54:06;95034.34;;;22.16;100.00
37716;BME280;23562;50.540;12.504;2022-07-21T09:56:35;95045.56;;;22.26;100.00
37716;BME280;23562;50.540;12.504;2022-07-21T09:59:01;95037.25;;;22.21;100.00
37716;BME280;23562;50.540;12.504;2022-07-21T10:01:28;95039.72;;;22.16;100.00
37716;BME280;23562;50.540;12.504;2022-07-21T10:03:55;95042.22;;;22.17;100.00
37716;BME280;23562;50.540;12.504;2022-07-21T10:06:30;95046.75;;;22.17;100.00
37716;BME280;23562;50.540;12.504;2022-07-21T10:08:56;95057.06;;;21.72;100.00
37716;BME280;23562;50.540;12.504;2022-07-21T10:11:23;95064.34;;;21.78;100.00
37716;BME280;23562;50.540;12.504;2022-07-21T10:13:49;95071.16;;;21.74;100.00
37716;BME280;23562;50.540;12.504;2022-07-21T10:16:14;95083.16;;;21.78;100.00
37716;BME280;23562;50.540;12.504;2022-07-21T10:21:32;95052.78;;;21.78;100.00
37716;BME280;23562;50.540;12.504;2022-07-21T10:24:00;95053.53;;;21.65;100.00
37716;BME280;23562;50.540;12.504;2022-07-21T10:26:26;95056.41;;;21.64;100.00
37716;BME280;23562;50.540;12.504;2022-07-21T10:28:51;95059.75;;;21.72;100.00
37716;BME280;23562;50.540;12.504;2022-07-21T10:31:19;95061.81;;;21.70;100.00
37716;BME280;23562;50.540;12.504;2022-07-21T10:41:44;95071.50;;;21.93;100.00
37716;BME280;23562;50.540;12.504;2022-07-21T10:47:14;95052.91;;;22.04;100.00
37716;BME280;23562;50.540;12.504;2022-07-21T10:49:46;95048.22;;;21.78;100.00
37716;BME280;23562;50.540;12.504;2022-07-21T10:52:55;95055.84;;;21.75;100.00
37716;BME280;23562;50.540;12.504;2022-07-21T10:55:26;95051.56;;;21.80;100.00
37716;BME280;23562;50.540;12.504;2022-07-21T10:58:12;95052.91;;;21.98;100.00
37716;BME280;23562;50.540;12.504;2022-07-21T11:00:49;95060.19;;;22.17;100.00
37716;BME280;23562;50.540;12.504;2022-07-21T11:08:39;95059.63;;;22.34;100.00
37716;BME280;23562;50.540;12.504;2022-07-21T11:19:42;95059.41;;;22.23;100.00
37716;BME280;23562;50.540;12.504;2022-07-21T11:22:23;95046.75;;;22.17;100.00
37716;BME280;23562;50.540;12.504;2022-07-21T11:24:57;95046.72;;;22.04;100.00
37716;BME280;23562;50.540;12.504;2022-07-21T11:27:25;95039.31;;;22.12;100.00
37716;BME280;23562;50.540;12.504;2022-07-21T11:29:53;95037.69;;;22.18;100.00
37716;BME280;23562;50.540;12.504;2022-07-21T11:32:19;95039.25;;;22.06;100.00
37716;BME280;23562;50.540;12.504;2022-07-21T11:34:48;95033.94;;;22.25;100.00
37716;BME280;23562;50.540;12.504;2022-07-21T11:37:17;95025.25;;;22.17;100.00
37716;BME280;23562;50.540;12.504;2022-07-21T11:39:43;95027.78;;;22.25;100.00
37716;BME280;23562;50.540;12.504;2022-07-21T11:42:13;95020.28;;;22.14;100.00
37716;BME280;23562;50.540;12.504;2022-07-21T11:44:41;95019.63;;;22.05;100.00
37716;BME280;23562;50.540;12.504;2022-07-21T11:47:09;95028.91;;;22.03;100.00
37716;BME280;23562;50.540;12.504;2022-07-21T11:49:34;95015.66;;;21.95;100.00
37716;BME280;23562;50.540;12.504;2022-07-21T11:52:09;95026.44;;;22.01;100.00
37716;BME280;23562;50.540;12.504;2022-07-21T11:54:48;95021.94;;;22.15;100.00
37716;BME280;23562;50.540;12.504;2022-07-21T11:57:15;95021.72;;;22.10;100.00
37716;BME280;23562;50.540;12.504;2022-07-21T11:59:41;95030.25;;;22.20;100.00
37716;BME280;23562;50.540;12.504;2022-07-21T12:02:12;95025.72;;;22.40;100.00
37716;BME280;23562;50.540;12.504;2022-07-21T12:04:39;95029.94;;;22.62;100.00
37716;BME280;23562;50.540;12.504;2022-07-21T12:07:28;95033.72;;;22.80;100.00
37716;BME280;23562;50.540;12.504;2022-07-21T12:09:56;95030.59;;;22.77;100.00
37716;BME280;23562;50.540;12.504;2022-07-21T12:12:36;95028.13;;;22.82;100.00
37716;BME280;23562;50.540;12.504;2022-07-21T12:15:17;95034.53;;;22.81;100.00
37716;BME280;23562;50.540;12.504;2022-07-21T12:17:48;95030.81;;;22.89;100.00
37716;BME280;23562;50.540;12.504;2022-07-21T12:20:15;95007.19;;;22.91;100.00
37716;BME280;23562;50.540;12.504;2022-07-21T12:22:48;95021.72;;;23.22;100.00
37716;BME280;23562;50.540;12.504;2022-07-21T12:25:16;95020.06;;;23.34;100.00
37716;BME280;23562;50.540;12.504;2022-07-21T12:27:46;95012.59;;;23.49;100.00
37716;BME280;23562;50.540;12.504;2022-07-21T12:30:38;95008.19;;;23.74;100.00
37716;BME280;23562;50.540;12.504;2022-07-21T12:33:14;95010.44;;;23.77;100.00
37716;BME280;23562;50.540;12.504;2022-07-21T12:36:01;95011.25;;;23.84;100.00
37716;BME280;23562;50.540;12.504;2022-07-21T12:38:40;95013.84;;;24.11;100.00
37716;BME280;23562;50.540;12.504;2022-07-21T12:41:07;95018.22;;;24.12;100.00
37716;BME280;23562;50.540;12.504;2022-07-21T12:43:33;95004.84;;;24.30;100.00
37716;BME280;23562;50.540;12.504;2022-07-21T12:46:08;95016.47;;;24.68;100.00
37716;BME280;23562;50.540;12.504;2022-07-21T12:48:34;95000.81;;;24.83;100.00
37716;BME280;23562;50.540;12.504;2022-07-21T12:53:30;95001.38;;;25.16;100.00
37716;BME280;23562;50.540;12.504;2022-07-21T12:55:56;95000.38;;;25.35;100.00
37716;BME280;23562;50.540;12.504;2022-07-21T12:58:21;94998.72;;;25.34;100.00
37716;BME280;23562;50.540;12.504;2022-07-21T13:00:47;94993.59;;;25.26;100.00
37716;BME280;23562;50.540;12.504;2022-07-21T13:03:12;94990.50;;;25.23;100.00
37716;BME280;23562;50.540;12.504;2022-07-21T13:05:37;94984.41;;;25.09;100.00
37716;BME280;23562;50.540;12.504;2022-07-21T13:08:03;94990.00;;;25.32;100.00
37716;BME280;23562;50.540;12.504;2022-07-21T13:10:28;94984.97;;;25.36;99.91
37716;BME280;23562;50.540;12.504;2022-07-21T13:12:54;94980.53;;;25.23;100.00
37716;BME280;23562;50.540;12.504;2022-07-21T13:15:19;94975.72;;;25.25;100.00
37716;BME280;23562;50.540;12.504;2022-07-21T13:17:44;94992.00;;;25.43;100.00
37716;BME280;23562;50.540;12.504;2022-07-21T13:20:10;94982.63;;;25.64;100.00
37716;BME280;23562;50.540;12.504;2022-07-21T13:22:36;94983.94;;;25.61;96.78
37716;BME280;23562;50.540;12.504;2022-07-21T13:25:03;94986.09;;;25.89;97.18